Aeroporto :
LOGIN :

Iscrizione | Disclaimer

   EN    FR    IT 

 










Sommario :    VFR   VFR Marginale   IFR   IFR Intensivo   IFR Molto Intensivo
Visibilità : 
Base nubi : 
>= 8 km
>= 3000ft
5 / 8 km
1000 / 3000 ft
1500m / 5 km
500 / 1000 ft
800 / 1500m
200 / 500 ft
< 800m
< 200 ft
Simboli :   Temporali  Nebbia  Neve Forte  Precipitazioni Forti  Vento > 20 kt
SIGMETs :   Varie  Temporali  Ghiacco  Turbolenza  Onda orograficha  Ceneri Vulcaniche






- Altitudine del aeroporto : 72 ft
- Codice IATA : UDE


EHVK - Volkel Airbase

ULTIMO METAR :
  • 140625Z AUTO 12008KT 090V160 9999 OVC100 05/03 Q0999 BLU

METARs OBSOLETI :
  • 140555Z AUTO 12009KT 9999 OVC100 04/03 Q0999 BLU
  • 140525Z AUTO 13008KT 100V170 9999 OVC180 04/03 Q0999 BLU
  • 140455Z AUTO 13007KT 100V160 9999 OVC190 04/03 Q0999 BLU
  • 140425Z AUTO 13006KT 100V160 9999 OVC200 04/02 Q0999 BLU
  • 140355Z AUTO 11005KT 080V140 9999 OVC230 03/02 Q0999 BLU

TAF TAF EHVK
Valido dal 14 a 06 ore il 14 a 18 ore UTC


140505Z 1406/1418 13007KT CAVOK
PROB40
TEMPO 1408/1416 13011G21KT SCT018 BKN025
PROB30
TEMPO 1410/1412 4500 -RADZ FEW010 BKN018
BECMG 1412/1415 VRB03KT



MetMap, La meteo Aeronautica in un colpo d'occhio ! - Copyright ORBIFLY Dicembre 2007 - Disclaimer

ORBIFLY MET'MAP TEAM :

Programmazione e sviluppo : Alexandra Zaïnal
Concezione e sviluppo : Baudouin d'Aumeries
Co-Programmazione e sviluppo : Marc-Olivier Méhu
Supporto tecnico e logistico : Manuel Goepfert
Aiuto per la traduzione : Arnaldo La Scala

Contatto : metmap@orbifly.com




FONTI E CREDITI :

   NOAA